sensor_id;sensor_type;location;lat;lon;timestamp;P1;durP1;ratioP1;P2;durP2;ratioP2
31390;SDS011;18022;45.492;11.548;2022-09-21T00:02:14;0.95;;;0.82;;
31390;SDS011;18022;45.492;11.548;2022-09-21T00:04:40;3.45;;;1.00;;
31390;SDS011;18022;45.492;11.548;2022-09-21T00:07:05;3.47;;;1.38;;
31390;SDS011;18022;45.492;11.548;2022-09-21T00:09:31;3.35;;;1.08;;
31390;SDS011;18022;45.492;11.548;2022-09-21T00:11:57;2.50;;;1.20;;
31390;SDS011;18022;45.492;11.548;2022-09-21T00:14:22;2.15;;;1.15;;
31390;SDS011;18022;45.492;11.548;2022-09-21T00:16:49;2.55;;;1.17;;
31390;SDS011;18022;45.492;11.548;2022-09-21T00:19:14;1.52;;;0.82;;
31390;SDS011;18022;45.492;11.548;2022-09-21T00:21:41;0.95;;;0.90;;
31390;SDS011;18022;45.492;11.548;2022-09-21T00:24:07;4.93;;;0.98;;
31390;SDS011;18022;45.492;11.548;2022-09-21T00:26:32;3.00;;;1.10;;
31390;SDS011;18022;45.492;11.548;2022-09-21T00:28:59;2.03;;;1.10;;
31390;SDS011;18022;45.492;11.548;2022-09-21T00:31:26;2.58;;;1.33;;
31390;SDS011;18022;45.492;11.548;2022-09-21T00:33:52;4.45;;;1.35;;
31390;SDS011;18022;45.492;11.548;2022-09-21T00:36:20;2.28;;;1.67;;
31390;SDS011;18022;45.492;11.548;2022-09-21T00:38:57;3.17;;;2.03;;
31390;SDS011;18022;45.492;11.548;2022-09-21T00:41:29;3.17;;;1.75;;
31390;SDS011;18022;45.492;11.548;2022-09-21T00:46:46;4.75;;;1.67;;
31390;SDS011;18022;45.492;11.548;2022-09-21T00:49:15;5.22;;;1.90;;
31390;SDS011;18022;45.492;11.548;2022-09-21T00:51:41;8.55;;;1.63;;
31390;SDS011;18022;45.492;11.548;2022-09-21T00:54:08;7.45;;;1.92;;
31390;SDS011;18022;45.492;11.548;2022-09-21T00:56:43;6.72;;;1.83;;
31390;SDS011;18022;45.492;11.548;2022-09-21T00:59:10;6.47;;;1.90;;
31390;SDS011;18022;45.492;11.548;2022-09-21T01:01:37;7.85;;;1.67;;
31390;SDS011;18022;45.492;11.548;2022-09-21T01:04:03;4.80;;;1.50;;
31390;SDS011;18022;45.492;11.548;2022-09-21T01:06:31;4.03;;;1.52;;
31390;SDS011;18022;45.492;11.548;2022-09-21T01:08:58;4.63;;;1.30;;
31390;SDS011;18022;45.492;11.548;2022-09-21T01:22:26;2.58;;;0.88;;
31390;SDS011;18022;45.492;11.548;2022-09-21T01:30:37;2.20;;;0.75;;
31390;SDS011;18022;45.492;11.548;2022-09-21T01:33:08;2.88;;;0.75;;
31390;SDS011;18022;45.492;11.548;2022-09-21T01:35:49;2.97;;;0.80;;
31390;SDS011;18022;45.492;11.548;2022-09-21T01:38:27;0.50;;;0.40;;
31390;SDS011;18022;45.492;11.548;2022-09-21T01:40:59;2.55;;;0.60;;
31390;SDS011;18022;45.492;11.548;2022-09-21T01:43:34;0.30;;;0.30;;
31390;SDS011;18022;45.492;11.548;2022-09-21T01:46:03;0.70;;;0.50;;
31390;SDS011;18022;45.492;11.548;2022-09-21T01:48:33;2.78;;;0.50;;
31390;SDS011;18022;45.492;11.548;2022-09-21T01:51:03;2.03;;;0.40;;
31390;SDS011;18022;45.492;11.548;2022-09-21T01:53:38;0.95;;;0.57;;
31390;SDS011;18022;45.492;11.548;2022-09-21T01:56:09;0.80;;;0.50;;
31390;SDS011;18022;45.492;11.548;2022-09-21T01:58:51;0.50;;;0.40;;
31390;SDS011;18022;45.492;11.548;2022-09-21T02:01:26;0.50;;;0.50;;
31390;SDS011;18022;45.492;11.548;2022-09-21T02:04:02;0.30;;;0.30;;
31390;SDS011;18022;45.492;11.548;2022-09-21T02:08:58;1.13;;;0.70;;
31390;SDS011;18022;45.492;11.548;2022-09-21T02:11:24;0.55;;;0.50;;
31390;SDS011;18022;45.492;11.548;2022-09-21T02:13:50;1.55;;;0.68;;
31390;SDS011;18022;45.492;11.548;2022-09-21T02:19:11;0.80;;;0.77;;
31390;SDS011;18022;45.492;11.548;2022-09-21T02:24:17;2.92;;;0.70;;
31390;SDS011;18022;45.492;11.548;2022-09-21T02:27:17;1.13;;;0.55;;
31390;SDS011;18022;45.492;11.548;2022-09-21T02:38:23;0.95;;;0.60;;
31390;SDS011;18022;45.492;11.548;2022-09-21T02:41:10;1.27;;;0.77;;
31390;SDS011;18022;45.492;11.548;2022-09-21T02:49:03;1.15;;;0.70;;
31390;SDS011;18022;45.492;11.548;2022-09-21T02:51:35;2.17;;;0.75;;
31390;SDS011;18022;45.492;11.548;2022-09-21T02:54:05;1.80;;;0.70;;
31390;SDS011;18022;45.492;11.548;2022-09-21T02:56:35;2.22;;;0.70;;
31390;SDS011;18022;45.492;11.548;2022-09-21T02:59:02;1.05;;;0.90;;
31390;SDS011;18022;45.492;11.548;2022-09-21T03:01:29;1.60;;;0.60;;
31390;SDS011;18022;45.492;11.548;2022-09-21T03:03:57;2.05;;;0.75;;
31390;SDS011;18022;45.492;11.548;2022-09-21T03:06:22;0.88;;;0.60;;
31390;SDS011;18022;45.492;11.548;2022-09-21T03:08:48;0.93;;;0.63;;
31390;SDS011;18022;45.492;11.548;2022-09-21T03:11:17;2.00;;;0.90;;
31390;SDS011;18022;45.492;11.548;2022-09-21T03:13:44;3.05;;;0.70;;
31390;SDS011;18022;45.492;11.548;2022-09-21T03:16:11;0.65;;;0.65;;
31390;SDS011;18022;45.492;11.548;2022-09-21T03:18:37;0.65;;;0.57;;
31390;SDS011;18022;45.492;11.548;2022-09-21T03:21:04;0.82;;;0.70;;
31390;SDS011;18022;45.492;11.548;2022-09-21T03:23:30;3.00;;;0.80;;
31390;SDS011;18022;45.492;11.548;2022-09-21T03:25:56;2.05;;;0.77;;
31390;SDS011;18022;45.492;11.548;2022-09-21T03:28:21;0.68;;;0.68;;
31390;SDS011;18022;45.492;11.548;2022-09-21T03:30:48;1.23;;;0.40;;
31390;SDS011;18022;45.492;11.548;2022-09-21T03:33:15;1.08;;;0.60;;
31390;SDS011;18022;45.492;11.548;2022-09-21T03:35:41;1.77;;;0.50;;
31390;SDS011;18022;45.492;11.548;2022-09-21T03:38:07;2.05;;;0.60;;
31390;SDS011;18022;45.492;11.548;2022-09-21T03:40:33;2.67;;;0.80;;
31390;SDS011;18022;45.492;11.548;2022-09-21T03:42:59;1.33;;;0.60;;
31390;SDS011;18022;45.492;11.548;2022-09-21T03:45:24;3.13;;;0.63;;
31390;SDS011;18022;45.492;11.548;2022-09-21T03:47:53;1.75;;;0.70;;
31390;SDS011;18022;45.492;11.548;2022-09-21T03:50:21;1.33;;;0.68;;
31390;SDS011;18022;45.492;11.548;2022-09-21T03:52:46;2.53;;;0.50;;
31390;SDS011;18022;45.492;11.548;2022-09-21T03:55:12;1.70;;;0.52;;
31390;SDS011;18022;45.492;11.548;2022-09-21T03:57:38;2.78;;;0.57;;
31390;SDS011;18022;45.492;11.548;2022-09-21T04:00:05;0.70;;;0.60;;
31390;SDS011;18022;45.492;11.548;2022-09-21T04:02:33;1.05;;;0.70;;
31390;SDS011;18022;45.492;11.548;2022-09-21T04:05:00;0.40;;;0.40;;
31390;SDS011;18022;45.492;11.548;2022-09-21T04:07:29;1.77;;;0.70;;
31390;SDS011;18022;45.492;11.548;2022-09-21T04:09:58;0.65;;;0.65;;
31390;SDS011;18022;45.492;11.548;2022-09-21T04:12:34;0.70;;;0.50;;
31390;SDS011;18022;45.492;11.548;2022-09-21T04:15:00;2.05;;;0.63;;
31390;SDS011;18022;45.492;11.548;2022-09-21T04:17:26;0.88;;;0.70;;
31390;SDS011;18022;45.492;11.548;2022-09-21T04:19:52;1.27;;;0.60;;
31390;SDS011;18022;45.492;11.548;2022-09-21T04:22:18;1.33;;;0.90;;
31390;SDS011;18022;45.492;11.548;2022-09-21T04:24:44;0.90;;;0.70;;
31390;SDS011;18022;45.492;11.548;2022-09-21T04:27:10;1.33;;;0.73;;
31390;SDS011;18022;45.492;11.548;2022-09-21T04:29:36;0.63;;;0.60;;
31390;SDS011;18022;45.492;11.548;2022-09-21T04:32:03;1.00;;;0.65;;
31390;SDS011;18022;45.492;11.548;2022-09-21T04:34:29;0.90;;;0.77;;
31390;SDS011;18022;45.492;11.548;2022-09-21T04:36:56;0.90;;;0.73;;
31390;SDS011;18022;45.492;11.548;2022-09-21T04:39:22;0.70;;;0.70;;
31390;SDS011;18022;45.492;11.548;2022-09-21T04:41:49;1.67;;;0.60;;
31390;SDS011;18022;45.492;11.548;2022-09-21T04:44:15;1.95;;;0.90;;
31390;SDS011;18022;45.492;11.548;2022-09-21T04:46:43;0.63;;;0.60;;
31390;SDS011;18022;45.492;11.548;2022-09-21T04:49:09;2.88;;;0.80;;
31390;SDS011;18022;45.492;11.548;2022-09-21T04:51:35;0.90;;;0.77;;
31390;SDS011;18022;45.492;11.548;2022-09-21T04:54:01;1.10;;;0.70;;
31390;SDS011;18022;45.492;11.548;2022-09-21T04:56:27;0.85;;;0.70;;
31390;SDS011;18022;45.492;11.548;2022-09-21T04:58:52;2.40;;;0.77;;
31390;SDS011;18022;45.492;11.548;2022-09-21T05:01:18;1.05;;;0.80;;
31390;SDS011;18022;45.492;11.548;2022-09-21T05:03:44;1.15;;;0.70;;
31390;SDS011;18022;45.492;11.548;2022-09-21T05:06:09;6.43;;;0.80;;
31390;SDS011;18022;45.492;11.548;2022-09-21T05:08:37;2.33;;;0.70;;
31390;SDS011;18022;45.492;11.548;2022-09-21T05:11:23;0.60;;;0.60;;
31390;SDS011;18022;45.492;11.548;2022-09-21T05:13:49;1.50;;;1.02;;
31390;SDS011;18022;45.492;11.548;2022-09-21T05:16:15;1.50;;;0.70;;
31390;SDS011;18022;45.492;11.548;2022-09-21T05:18:42;0.65;;;0.65;;
31390;SDS011;18022;45.492;11.548;2022-09-21T05:21:08;1.70;;;1.30;;
31390;SDS011;18022;45.492;11.548;2022-09-21T05:23:35;1.42;;;0.70;;
31390;SDS011;18022;45.492;11.548;2022-09-21T05:26:00;2.35;;;0.80;;
31390;SDS011;18022;45.492;11.548;2022-09-21T05:28:26;2.70;;;0.70;;
31390;SDS011;18022;45.492;11.548;2022-09-21T05:30:55;1.50;;;0.70;;
31390;SDS011;18022;45.492;11.548;2022-09-21T05:39:21;1.02;;;0.70;;
31390;SDS011;18022;45.492;11.548;2022-09-21T05:41:47;1.08;;;0.68;;
31390;SDS011;18022;45.492;11.548;2022-09-21T05:44:13;2.08;;;0.70;;
31390;SDS011;18022;45.492;11.548;2022-09-21T06:02:40;2.97;;;0.88;;
31390;SDS011;18022;45.492;11.548;2022-09-21T06:05:09;1.15;;;0.63;;
31390;SDS011;18022;45.492;11.548;2022-09-21T06:07:37;1.48;;;0.60;;
31390;SDS011;18022;45.492;11.548;2022-09-21T06:10:03;2.45;;;0.88;;
31390;SDS011;18022;45.492;11.548;2022-09-21T06:12:29;0.98;;;0.70;;
31390;SDS011;18022;45.492;11.548;2022-09-21T06:14:55;1.10;;;0.70;;
31390;SDS011;18022;45.492;11.548;2022-09-21T06:17:21;1.83;;;0.80;;
31390;SDS011;18022;45.492;11.548;2022-09-21T06:19:46;0.70;;;0.63;;
31390;SDS011;18022;45.492;11.548;2022-09-21T06:22:12;0.63;;;0.63;;
31390;SDS011;18022;45.492;11.548;2022-09-21T06:24:38;0.98;;;0.80;;
31390;SDS011;18022;45.492;11.548;2022-09-21T06:27:03;0.68;;;0.63;;
31390;SDS011;18022;45.492;11.548;2022-09-21T06:29:29;3.92;;;0.70;;
31390;SDS011;18022;45.492;11.548;2022-09-21T06:31:55;0.88;;;0.60;;
31390;SDS011;18022;45.492;11.548;2022-09-21T06:34:21;0.57;;;0.57;;
31390;SDS011;18022;45.492;11.548;2022-09-21T06:36:47;1.25;;;0.80;;
31390;SDS011;18022;45.492;11.548;2022-09-21T06:39:12;1.55;;;0.77;;
31390;SDS011;18022;45.492;11.548;2022-09-21T06:41:38;1.50;;;0.70;;
31390;SDS011;18022;45.492;11.548;2022-09-21T06:44:04;1.55;;;0.80;;
31390;SDS011;18022;45.492;11.548;2022-09-21T06:46:29;0.60;;;0.52;;
31390;SDS011;18022;45.492;11.548;2022-09-21T06:48:55;3.25;;;0.77;;
31390;SDS011;18022;45.492;11.548;2022-09-21T06:51:21;0.68;;;0.68;;
31390;SDS011;18022;45.492;11.548;2022-09-21T06:53:48;1.00;;;0.63;;
31390;SDS011;18022;45.492;11.548;2022-09-21T06:56:17;1.50;;;0.80;;
31390;SDS011;18022;45.492;11.548;2022-09-21T06:58:43;2.28;;;0.75;;
31390;SDS011;18022;45.492;11.548;2022-09-21T07:03:37;3.40;;;0.93;;
31390;SDS011;18022;45.492;11.548;2022-09-21T07:06:05;2.45;;;0.70;;
31390;SDS011;18022;45.492;11.548;2022-09-21T07:08:31;0.93;;;0.80;;
31390;SDS011;18022;45.492;11.548;2022-09-21T07:10:58;2.83;;;0.77;;
31390;SDS011;18022;45.492;11.548;2022-09-21T07:13:27;1.02;;;0.80;;
31390;SDS011;18022;45.492;11.548;2022-09-21T07:15:53;5.20;;;0.60;;
31390;SDS011;18022;45.492;11.548;2022-09-21T07:18:19;3.08;;;0.85;;
31390;SDS011;18022;45.492;11.548;2022-09-21T07:20:46;2.67;;;1.10;;
31390;SDS011;18022;45.492;11.548;2022-09-21T07:23:16;1.13;;;0.93;;
31390;SDS011;18022;45.492;11.548;2022-09-21T07:25:44;1.20;;;1.10;;
31390;SDS011;18022;45.492;11.548;2022-09-21T07:28:13;3.55;;;1.42;;
31390;SDS011;18022;45.492;11.548;2022-09-21T07:30:41;4.00;;;1.48;;
31390;SDS011;18022;45.492;11.548;2022-09-21T07:33:07;4.90;;;1.40;;
31390;SDS011;18022;45.492;11.548;2022-09-21T07:35:33;1.35;;;1.25;;
31390;SDS011;18022;45.492;11.548;2022-09-21T07:38:01;2.75;;;1.38;;
31390;SDS011;18022;45.492;11.548;2022-09-21T07:40:29;1.27;;;1.02;;
31390;SDS011;18022;45.492;11.548;2022-09-21T07:42:59;3.22;;;1.63;;
31390;SDS011;18022;45.492;11.548;2022-09-21T07:45:29;1.30;;;1.00;;
31390;SDS011;18022;45.492;11.548;2022-09-21T07:47:55;2.00;;;1.35;;
31390;SDS011;18022;45.492;11.548;2022-09-21T07:50:30;1.98;;;1.30;;
31390;SDS011;18022;45.492;11.548;2022-09-21T07:53:00;4.35;;;1.20;;
31390;SDS011;18022;45.492;11.548;2022-09-21T07:55:26;5.53;;;1.20;;
31390;SDS011;18022;45.492;11.548;2022-09-21T07:57:52;2.45;;;1.50;;
31390;SDS011;18022;45.492;11.548;2022-09-21T08:00:37;3.83;;;1.02;;
31390;SDS011;18022;45.492;11.548;2022-09-21T08:03:03;1.95;;;1.25;;
31390;SDS011;18022;45.492;11.548;2022-09-21T08:05:30;2.67;;;1.67;;
31390;SDS011;18022;45.492;11.548;2022-09-21T08:07:56;1.90;;;1.65;;
31390;SDS011;18022;45.492;11.548;2022-09-21T08:10:23;2.97;;;1.38;;
31390;SDS011;18022;45.492;11.548;2022-09-21T08:12:52;4.07;;;1.10;;
31390;SDS011;18022;45.492;11.548;2022-09-21T08:15:19;3.67;;;1.40;;
31390;SDS011;18022;45.492;11.548;2022-09-21T08:17:45;1.50;;;0.90;;
31390;SDS011;18022;45.492;11.548;2022-09-21T08:20:10;3.85;;;0.70;;
31390;SDS011;18022;45.492;11.548;2022-09-21T08:22:37;0.85;;;0.57;;
31390;SDS011;18022;45.492;11.548;2022-09-21T08:25:02;1.33;;;0.57;;
31390;SDS011;18022;45.492;11.548;2022-09-21T08:27:28;4.50;;;0.93;;
31390;SDS011;18022;45.492;11.548;2022-09-21T08:29:54;1.58;;;0.50;;
31390;SDS011;18022;45.492;11.548;2022-09-21T08:32:20;0.88;;;0.50;;
31390;SDS011;18022;45.492;11.548;2022-09-21T08:34:46;3.30;;;0.43;;
31390;SDS011;18022;45.492;11.548;2022-09-21T08:37:11;1.95;;;0.60;;
31390;SDS011;18022;45.492;11.548;2022-09-21T08:39:37;1.65;;;0.50;;
31390;SDS011;18022;45.492;11.548;2022-09-21T08:42:07;1.35;;;0.40;;
31390;SDS011;18022;45.492;11.548;2022-09-21T08:44:38;0.73;;;0.40;;
31390;SDS011;18022;45.492;11.548;2022-09-21T08:47:14;5.57;;;0.40;;
31390;SDS011;18022;45.492;11.548;2022-09-21T08:52:52;1.58;;;0.60;;
31390;SDS011;18022;45.492;11.548;2022-09-21T08:55:22;0.95;;;0.47;;
31390;SDS011;18022;45.492;11.548;2022-09-21T08:57:48;1.02;;;0.50;;
31390;SDS011;18022;45.492;11.548;2022-09-21T09:00:15;2.58;;;1.13;;
31390;SDS011;18022;45.492;11.548;2022-09-21T09:16:31;2.28;;;1.15;;
31390;SDS011;18022;45.492;11.548;2022-09-21T09:19:27;1.27;;;0.52;;
31390;SDS011;18022;45.492;11.548;2022-09-21T09:22:08;0.73;;;0.68;;
31390;SDS011;18022;45.492;11.548;2022-09-21T09:24:39;2.78;;;0.50;;
31390;SDS011;18022;45.492;11.548;2022-09-21T09:29:49;2.88;;;0.82;;
31390;SDS011;18022;45.492;11.548;2022-09-21T09:32:22;2.40;;;0.50;;
31390;SDS011;18022;45.492;11.548;2022-09-21T09:35:04;0.93;;;0.52;;
31390;SDS011;18022;45.492;11.548;2022-09-21T09:37:41;0.95;;;0.60;;
31390;SDS011;18022;45.492;11.548;2022-09-21T09:40:10;1.02;;;0.50;;
31390;SDS011;18022;45.492;11.548;2022-09-21T09:48:13;1.13;;;0.52;;
31390;SDS011;18022;45.492;11.548;2022-09-21T09:50:48;0.65;;;0.47;;
31390;SDS011;18022;45.492;11.548;2022-09-21T09:53:17;2.45;;;0.50;;
31390;SDS011;18022;45.492;11.548;2022-09-21T09:55:49;1.48;;;0.60;;
31390;SDS011;18022;45.492;11.548;2022-09-21T09:58:19;1.75;;;0.60;;
31390;SDS011;18022;45.492;11.548;2022-09-21T10:00:49;1.50;;;0.50;;
31390;SDS011;18022;45.492;11.548;2022-09-21T10:03:18;2.03;;;0.40;;
31390;SDS011;18022;45.492;11.548;2022-09-21T10:05:49;1.75;;;0.60;;
31390;SDS011;18022;45.492;11.548;2022-09-21T10:11:03;2.13;;;0.63;;
31390;SDS011;18022;45.492;11.548;2022-09-21T10:13:36;3.47;;;0.83;;
31390;SDS011;18022;45.492;11.548;2022-09-21T10:16:14;2.67;;;0.50;;
31390;SDS011;18022;45.492;11.548;2022-09-21T10:21:23;1.00;;;0.40;;
31390;SDS011;18022;45.492;11.548;2022-09-21T10:24:19;0.85;;;0.40;;
31390;SDS011;18022;45.492;11.548;2022-09-21T10:32:02;0.77;;;0.50;;
31390;SDS011;18022;45.492;11.548;2022-09-21T10:34:31;3.15;;;1.13;;
31390;SDS011;18022;45.492;11.548;2022-09-21T10:37:00;0.57;;;0.40;;
31390;SDS011;18022;45.492;11.548;2022-09-21T10:39:31;0.60;;;0.40;;
31390;SDS011;18022;45.492;11.548;2022-09-21T10:42:03;3.67;;;0.43;;
31390;SDS011;18022;45.492;11.548;2022-09-21T10:44:41;0.77;;;0.50;;
31390;SDS011;18022;45.492;11.548;2022-09-21T10:47:19;0.80;;;0.38;;
31390;SDS011;18022;45.492;11.548;2022-09-21T10:49:48;1.35;;;0.40;;
31390;SDS011;18022;45.492;11.548;2022-09-21T10:52:17;0.55;;;0.30;;
31390;SDS011;18022;45.492;11.548;2022-09-21T10:54:47;0.90;;;0.40;;
31390;SDS011;18022;45.492;11.548;2022-09-21T10:57:16;3.25;;;0.57;;
31390;SDS011;18022;45.492;11.548;2022-09-21T10:59:44;0.77;;;0.40;;
31390;SDS011;18022;45.492;11.548;2022-09-21T11:05:38;1.20;;;0.40;;
31390;SDS011;18022;45.492;11.548;2022-09-21T11:08:13;1.17;;;0.40;;
31390;SDS011;18022;45.492;11.548;2022-09-21T11:13:46;0.52;;;0.30;;
31390;SDS011;18022;45.492;11.548;2022-09-21T11:16:25;0.82;;;0.40;;
31390;SDS011;18022;45.492;11.548;2022-09-21T11:21:51;0.90;;;0.30;;
31390;SDS011;18022;45.492;11.548;2022-09-21T11:24:48;1.65;;;0.47;;
31390;SDS011;18022;45.492;11.548;2022-09-21T11:30:08;0.30;;;0.30;;
31390;SDS011;18022;45.492;11.548;2022-09-21T11:37:54;0.73;;;0.30;;
31390;SDS011;18022;45.492;11.548;2022-09-21T11:51:56;0.75;;;0.40;;
31390;SDS011;18022;45.492;11.548;2022-09-21T11:57:15;0.80;;;0.40;;
31390;SDS011;18022;45.492;11.548;2022-09-21T12:05:18;0.75;;;0.32;;
31390;SDS011;18022;45.492;11.548;2022-09-21T12:08:09;0.55;;;0.30;;
31390;SDS011;18022;45.492;11.548;2022-09-21T12:15:59;0.30;;;0.30;;
31390;SDS011;18022;45.492;11.548;2022-09-21T12:21:39;0.90;;;0.40;;
31390;SDS011;18022;45.492;11.548;2022-09-21T12:24:18;0.68;;;0.32;;
31390;SDS011;18022;45.492;11.548;2022-09-21T12:26:54;0.55;;;0.30;;
31390;SDS011;18022;45.492;11.548;2022-09-21T12:29:27;1.70;;;0.40;;
31390;SDS011;18022;45.492;11.548;2022-09-21T12:34:43;1.00;;;0.50;;
31390;SDS011;18022;45.492;11.548;2022-09-21T12:48:35;0.50;;;0.30;;
31390;SDS011;18022;45.492;11.548;2022-09-21T12:51:26;2.25;;;0.40;;
31390;SDS011;18022;45.492;11.548;2022-09-21T12:53:58;1.00;;;0.55;;
31390;SDS011;18022;45.492;11.548;2022-09-21T13:09:27;0.30;;;0.30;;
31390;SDS011;18022;45.492;11.548;2022-09-21T13:12:06;2.13;;;0.30;;
31390;SDS011;18022;45.492;11.548;2022-09-21T13:17:00;0.65;;;0.20;;
31390;SDS011;18022;45.492;11.548;2022-09-21T13:19:30;0.60;;;0.40;;
31390;SDS011;18022;45.492;11.548;2022-09-21T13:27:59;2.58;;;0.60;;
31390;SDS011;18022;45.492;11.548;2022-09-21T13:30:30;1.58;;;0.38;;
31390;SDS011;18022;45.492;11.548;2022-09-21T13:33:07;1.13;;;0.30;;
31390;SDS011;18022;45.492;11.548;2022-09-21T13:35:51;1.45;;;0.40;;
31390;SDS011;18022;45.492;11.548;2022-09-21T13:43:47;0.85;;;0.35;;
31390;SDS011;18022;45.492;11.548;2022-09-21T13:51:50;2.35;;;0.28;;
31390;SDS011;18022;45.492;11.548;2022-09-21T14:00:06;0.70;;;0.40;;
31390;SDS011;18022;45.492;11.548;2022-09-21T14:07:43;2.30;;;0.43;;
31390;SDS011;18022;45.492;11.548;2022-09-21T14:10:15;3.70;;;0.45;;
31390;SDS011;18022;45.492;11.548;2022-09-21T14:12:44;0.43;;;0.30;;
31390;SDS011;18022;45.492;11.548;2022-09-21T14:17:43;0.38;;;0.30;;
31390;SDS011;18022;45.492;11.548;2022-09-21T14:25:59;3.95;;;0.30;;
31390;SDS011;18022;45.492;11.548;2022-09-21T14:28:38;0.57;;;0.30;;
31390;SDS011;18022;45.492;11.548;2022-09-21T14:31:42;1.05;;;0.25;;
31390;SDS011;18022;45.492;11.548;2022-09-21T14:34:03;0.98;;;0.20;;
31390;SDS011;18022;45.492;11.548;2022-09-21T14:36:39;0.50;;;0.40;;
31390;SDS011;18022;45.492;11.548;2022-09-21T14:39:16;0.98;;;0.30;;
31390;SDS011;18022;45.492;11.548;2022-09-21T14:41:47;1.05;;;0.40;;
31390;SDS011;18022;45.492;11.548;2022-09-21T14:44:20;1.00;;;0.22;;
31390;SDS011;18022;45.492;11.548;2022-09-21T15:00:44;1.45;;;0.40;;
31390;SDS011;18022;45.492;11.548;2022-09-21T15:12:40;3.17;;;0.40;;
31390;SDS011;18022;45.492;11.548;2022-09-21T15:17:56;1.00;;;0.30;;
31390;SDS011;18022;45.492;11.548;2022-09-21T15:20:25;0.50;;;0.30;;
31390;SDS011;18022;45.492;11.548;2022-09-21T15:22:56;0.85;;;0.30;;
31390;SDS011;18022;45.492;11.548;2022-09-21T15:25:24;6.10;;;0.50;;
31390;SDS011;18022;45.492;11.548;2022-09-21T15:27:51;0.65;;;0.40;;
31390;SDS011;18022;45.492;11.548;2022-09-21T15:30:25;1.38;;;0.40;;
31390;SDS011;18022;45.492;11.548;2022-09-21T15:32:54;1.02;;;0.32;;
31390;SDS011;18022;45.492;11.548;2022-09-21T15:35:25;1.70;;;0.30;;
31390;SDS011;18022;45.492;11.548;2022-09-21T15:37:53;2.47;;;0.30;;
31390;SDS011;18022;45.492;11.548;2022-09-21T15:40:24;0.22;;;0.22;;
31390;SDS011;18022;45.492;11.548;2022-09-21T15:48:26;3.03;;;0.40;;
31390;SDS011;18022;45.492;11.548;2022-09-21T15:50:58;1.30;;;0.50;;
31390;SDS011;18022;45.492;11.548;2022-09-21T15:53:48;0.20;;;0.20;;
31390;SDS011;18022;45.492;11.548;2022-09-21T15:56:18;0.70;;;0.40;;
31390;SDS011;18022;45.492;11.548;2022-09-21T15:58:47;0.28;;;0.20;;
31390;SDS011;18022;45.492;11.548;2022-09-21T16:01:17;0.35;;;0.20;;
31390;SDS011;18022;45.492;11.548;2022-09-21T16:03:45;1.15;;;0.20;;
31390;SDS011;18022;45.492;11.548;2022-09-21T16:08:59;0.20;;;0.20;;
31390;SDS011;18022;45.492;11.548;2022-09-21T16:11:48;1.88;;;0.43;;
31390;SDS011;18022;45.492;11.548;2022-09-21T16:14:14;0.38;;;0.30;;
31390;SDS011;18022;45.492;11.548;2022-09-21T16:24:56;1.80;;;0.30;;
31390;SDS011;18022;45.492;11.548;2022-09-21T16:27:24;0.90;;;0.30;;
31390;SDS011;18022;45.492;11.548;2022-09-21T16:29:53;0.77;;;0.30;;
31390;SDS011;18022;45.492;11.548;2022-09-21T16:40:23;5.93;;;0.43;;
31390;SDS011;18022;45.492;11.548;2022-09-21T16:42:51;2.40;;;0.40;;
31390;SDS011;18022;45.492;11.548;2022-09-21T16:45:26;1.75;;;0.40;;
31390;SDS011;18022;45.492;11.548;2022-09-21T16:47:55;0.52;;;0.38;;
31390;SDS011;18022;45.492;11.548;2022-09-21T16:50:21;1.75;;;0.40;;
31390;SDS011;18022;45.492;11.548;2022-09-21T16:52:48;2.17;;;0.47;;
31390;SDS011;18022;45.492;11.548;2022-09-21T16:55:16;1.58;;;0.43;;
31390;SDS011;18022;45.492;11.548;2022-09-21T16:57:45;0.77;;;0.50;;
31390;SDS011;18022;45.492;11.548;2022-09-21T17:00:13;1.10;;;0.45;;
31390;SDS011;18022;45.492;11.548;2022-09-21T17:02:45;0.57;;;0.35;;
31390;SDS011;18022;45.492;11.548;2022-09-21T17:05:12;0.30;;;0.30;;
31390;SDS011;18022;45.492;11.548;2022-09-21T17:07:47;1.02;;;0.30;;
31390;SDS011;18022;45.492;11.548;2022-09-21T17:10:20;0.85;;;0.30;;
31390;SDS011;18022;45.492;11.548;2022-09-21T17:12:53;0.82;;;0.50;;
31390;SDS011;18022;45.492;11.548;2022-09-21T17:15:20;0.28;;;0.28;;
31390;SDS011;18022;45.492;11.548;2022-09-21T17:17:46;0.70;;;0.50;;
31390;SDS011;18022;45.492;11.548;2022-09-21T17:22:55;6.35;;;2.90;;
31390;SDS011;18022;45.492;11.548;2022-09-21T17:25:21;3.40;;;2.08;;
31390;SDS011;18022;45.492;11.548;2022-09-21T17:27:47;2.50;;;1.10;;
31390;SDS011;18022;45.492;11.548;2022-09-21T17:30:13;1.48;;;0.50;;
31390;SDS011;18022;45.492;11.548;2022-09-21T17:32:42;2.03;;;0.70;;
31390;SDS011;18022;45.492;11.548;2022-09-21T17:37:54;1.95;;;0.77;;
31390;SDS011;18022;45.492;11.548;2022-09-21T17:40:20;1.10;;;0.50;;
31390;SDS011;18022;45.492;11.548;2022-09-21T17:42:48;1.63;;;0.45;;
31390;SDS011;18022;45.492;11.548;2022-09-21T17:48:01;1.75;;;0.40;;
31390;SDS011;18022;45.492;11.548;2022-09-21T17:50:28;0.93;;;0.43;;
31390;SDS011;18022;45.492;11.548;2022-09-21T17:52:54;0.50;;;0.40;;
31390;SDS011;18022;45.492;11.548;2022-09-21T17:55:58;0.85;;;0.50;;
31390;SDS011;18022;45.492;11.548;2022-09-21T17:59:13;1.13;;;0.40;;
31390;SDS011;18022;45.492;11.548;2022-09-21T18:01:28;1.48;;;0.77;;
31390;SDS011;18022;45.492;11.548;2022-09-21T18:03:59;1.45;;;0.70;;
31390;SDS011;18022;45.492;11.548;2022-09-21T18:06:25;1.75;;;0.70;;
31390;SDS011;18022;45.492;11.548;2022-09-21T18:08:51;0.95;;;0.57;;
31390;SDS011;18022;45.492;11.548;2022-09-21T18:25:27;1.38;;;0.60;;
31390;SDS011;18022;45.492;11.548;2022-09-21T18:28:01;2.65;;;0.82;;
31390;SDS011;18022;45.492;11.548;2022-09-21T18:30:37;0.85;;;0.70;;
31390;SDS011;18022;45.492;11.548;2022-09-21T18:38:39;2.92;;;2.08;;
31390;SDS011;18022;45.492;11.548;2022-09-21T18:44:03;3.50;;;1.83;;
31390;SDS011;18022;45.492;11.548;2022-09-21T18:47:00;3.55;;;2.65;;
31390;SDS011;18022;45.492;11.548;2022-09-21T18:49:43;6.15;;;3.30;;
31390;SDS011;18022;45.492;11.548;2022-09-21T18:55:30;3.90;;;1.77;;
31390;SDS011;18022;45.492;11.548;2022-09-21T18:57:57;5.15;;;2.00;;
31390;SDS011;18022;45.492;11.548;2022-09-21T19:00:25;3.20;;;1.83;;
31390;SDS011;18022;45.492;11.548;2022-09-21T19:03:05;7.10;;;2.40;;
31390;SDS011;18022;45.492;11.548;2022-09-21T19:05:36;2.08;;;1.80;;
31390;SDS011;18022;45.492;11.548;2022-09-21T19:10:49;2.53;;;1.80;;
31390;SDS011;18022;45.492;11.548;2022-09-21T19:19:03;6.78;;;2.92;;
31390;SDS011;18022;45.492;11.548;2022-09-21T19:21:57;3.80;;;2.40;;
31390;SDS011;18022;45.492;11.548;2022-09-21T19:37:49;4.07;;;1.80;;
31390;SDS011;18022;45.492;11.548;2022-09-21T19:40:19;2.70;;;1.40;;
31390;SDS011;18022;45.492;11.548;2022-09-21T19:48:20;2.10;;;1.40;;
31390;SDS011;18022;45.492;11.548;2022-09-21T19:50:51;4.38;;;1.50;;
31390;SDS011;18022;45.492;11.548;2022-09-21T19:53:20;2.25;;;1.23;;
31390;SDS011;18022;45.492;11.548;2022-09-21T19:56:14;1.15;;;0.90;;
31390;SDS011;18022;45.492;11.548;2022-09-21T19:58:59;1.00;;;0.90;;
31390;SDS011;18022;45.492;11.548;2022-09-21T20:01:53;1.77;;;0.80;;
31390;SDS011;18022;45.492;11.548;2022-09-21T20:04:27;1.48;;;1.20;;
31390;SDS011;18022;45.492;11.548;2022-09-21T20:06:58;1.20;;;1.00;;
31390;SDS011;18022;45.492;11.548;2022-09-21T20:09:36;0.75;;;0.68;;
31390;SDS011;18022;45.492;11.548;2022-09-21T20:14:45;1.20;;;0.98;;
31390;SDS011;18022;45.492;11.548;2022-09-21T20:17:16;0.98;;;0.90;;
31390;SDS011;18022;45.492;11.548;2022-09-21T20:20:02;1.52;;;0.80;;